createdAt,value
2019-02-26T00:00:14.380Z,64.26
2019-02-26T00:02:41.622Z,64.72
2019-02-26T00:05:07.941Z,65.21
2019-02-26T00:07:34.089Z,64.95
2019-02-26T00:10:02.616Z,64.64
2019-02-26T00:12:31.119Z,65.90
2019-02-26T00:15:00.210Z,66.86
2019-02-26T00:17:26.064Z,66.46
2019-02-26T00:19:52.300Z,66.13
2019-02-26T00:22:18.743Z,66.90
2019-02-26T00:24:46.619Z,65.77
2019-02-26T00:27:12.933Z,66.17
2019-02-26T00:29:39.108Z,66.36
2019-02-26T00:32:06.992Z,66.89
2019-02-26T00:34:34.598Z,65.62
2019-02-26T00:37:02.180Z,65.67
2019-02-26T00:39:31.377Z,65.71
2019-02-26T00:41:58.828Z,66.52
2019-02-26T00:44:27.438Z,67.29
2019-02-26T00:46:55.721Z,67.33
2019-02-26T00:49:23.706Z,66.73
2019-02-26T00:51:52.333Z,65.93
2019-02-26T00:54:20.182Z,66.21
2019-02-26T00:56:46.388Z,65.50
2019-02-26T00:59:12.495Z,65.72
2019-02-26T01:01:39.918Z,65.92
2019-02-26T01:04:06.160Z,65.57
2019-02-26T01:06:33.535Z,66.02
2019-02-26T01:09:01.833Z,66.56
2019-02-26T01:11:30.218Z,67.04
2019-02-26T01:13:57.407Z,67.62
2019-02-26T01:16:24.817Z,68.01
2019-02-26T01:18:51.505Z,68.28
2019-02-26T01:21:22.146Z,67.52
2019-02-26T01:23:47.061Z,67.32
2019-02-26T01:26:13.378Z,67.84
2019-02-26T01:28:39.755Z,67.83
2019-02-26T01:31:07.357Z,68.18
2019-02-26T01:33:34.272Z,68.34
2019-02-26T01:36:02.536Z,68.26
2019-02-26T01:38:28.631Z,68.22
2019-02-26T01:40:55.953Z,67.81
2019-02-26T01:43:22.316Z,68.02
2019-02-26T01:45:50.829Z,69.03
2019-02-26T01:48:18.523Z,69.11
2019-02-26T01:50:44.950Z,68.46
2019-02-26T01:53:14.044Z,68.29
2019-02-26T01:55:42.120Z,68.54
2019-02-26T01:58:08.220Z,67.96
2019-02-26T02:00:34.351Z,67.23
2019-02-26T02:03:00.730Z,66.39
2019-02-26T02:05:29.438Z,67.08
2019-02-26T02:07:55.963Z,67.52
2019-02-26T02:10:22.466Z,68.72
2019-02-26T02:12:48.693Z,67.79
2019-02-26T02:15:17.923Z,67.72
2019-02-26T02:17:43.504Z,68.36
2019-02-26T02:20:16.412Z,68.40
2019-02-26T02:22:44.396Z,68.15
2019-02-26T02:25:11.023Z,68.39
2019-02-26T02:27:37.330Z,67.58
2019-02-26T02:30:14.172Z,67.62
2019-02-26T02:32:38.739Z,68.34
2019-02-26T02:35:07.418Z,67.68
2019-02-26T02:37:34.490Z,68.09
2019-02-26T02:40:00.877Z,67.66
2019-02-26T02:42:27.087Z,68.57
2019-02-26T02:44:53.182Z,68.61
2019-02-26T02:47:20.482Z,69.08
2019-02-26T02:49:47.689Z,68.69
2019-02-26T02:52:14.962Z,69.11
2019-02-26T02:54:43.800Z,68.68
2019-02-26T02:57:10.027Z,67.94
2019-02-26T02:59:41.758Z,68.49
2019-02-26T03:02:06.789Z,67.89
2019-02-26T03:04:34.758Z,68.92
2019-02-26T03:07:03.284Z,68.62
2019-02-26T03:09:31.249Z,68.58
2019-02-26T03:11:57.503Z,69.06
2019-02-26T03:14:24.790Z,70.88
2019-02-26T03:16:53.379Z,72.02
2019-02-26T03:19:18.921Z,71.80
2019-02-26T03:21:47.193Z,72.96
2019-02-26T03:24:14.246Z,73.30
2019-02-26T03:26:40.312Z,73.41
2019-02-26T03:29:06.477Z,73.03
2019-02-26T03:31:35.072Z,72.68
2019-02-26T03:34:10.526Z,72.05
2019-02-26T03:36:38.305Z,70.64
2019-02-26T03:39:08.570Z,71.49
2019-02-26T03:41:34.944Z,71.96
2019-02-26T03:44:06.378Z,72.36
2019-02-26T03:46:32.940Z,72.96
2019-02-26T03:49:02.486Z,72.30
2019-02-26T03:51:30.793Z,71.67
2019-02-26T03:53:57.206Z,72.25
2019-02-26T03:56:23.521Z,71.75
2019-02-26T03:58:52.149Z,72.46
2019-02-26T04:01:19.422Z,72.23
2019-02-26T04:03:46.397Z,71.49
2019-02-26T04:06:12.716Z,70.96
2019-02-26T04:08:39.053Z,69.66
2019-02-26T04:11:05.331Z,69.60
2019-02-26T04:13:31.655Z,69.77
2019-02-26T04:15:59.596Z,69.13
2019-02-26T04:18:26.137Z,70.06
2019-02-26T04:20:52.346Z,70.31
2019-02-26T04:23:19.888Z,71.12
2019-02-26T04:25:54.057Z,71.75
2019-02-26T04:28:49.332Z,70.93
2019-02-26T04:31:54.663Z,70.83
2019-02-26T04:34:24.723Z,69.64
2019-02-26T04:37:07.165Z,70.30
2019-02-26T04:40:12.100Z,71.11
2019-02-26T04:42:48.629Z,69.51
2019-02-26T04:45:24.551Z,69.31
2019-02-26T04:47:55.461Z,69.25
2019-02-26T04:50:26.128Z,70.14
2019-02-26T04:52:50.278Z,69.79
2019-02-26T04:55:16.510Z,69.74
2019-02-26T04:57:45.657Z,71.87
2019-02-26T05:00:12.283Z,73.19
2019-02-26T05:02:38.593Z,72.43
2019-02-26T05:05:06.464Z,72.57
2019-02-26T05:07:32.968Z,72.35
2019-02-26T05:10:02.148Z,72.57
2019-02-26T05:12:30.755Z,72.95
2019-02-26T05:14:55.919Z,73.72
2019-02-26T05:17:24.653Z,74.07
2019-02-26T05:19:52.403Z,74.02
2019-02-26T05:22:19.838Z,73.17
2019-02-26T05:24:47.419Z,73.46
2019-02-26T05:27:18.898Z,73.32
2019-02-26T05:29:46.644Z,73.25
2019-02-26T05:32:12.506Z,73.24
2019-02-26T05:34:39.910Z,73.28
2019-02-26T05:37:08.122Z,74.11
2019-02-26T05:39:43.067Z,73.50
2019-02-26T05:42:13.451Z,73.65
2019-02-26T05:44:39.652Z,73.11
2019-02-26T05:47:13.229Z,73.47
2019-02-26T05:49:41.433Z,74.80
2019-02-26T05:52:08.161Z,75.47
2019-02-26T05:54:34.377Z,74.89
2019-02-26T05:57:27.086Z,73.85
2019-02-26T05:59:41.891Z,74.85
2019-02-26T06:02:10.599Z,75.11
2019-02-26T06:04:44.387Z,75.80
2019-02-26T06:07:11.289Z,74.69
2019-02-26T06:09:37.623Z,74.41
2019-02-26T06:12:11.751Z,74.75
2019-02-26T06:14:43.868Z,75.01
2019-02-26T06:17:15.537Z,75.22
2019-02-26T06:19:44.954Z,74.43
2019-02-26T06:22:17.035Z,74.05
2019-02-26T06:24:40.202Z,74.33
2019-02-26T06:27:08.645Z,74.65
2019-02-26T06:29:35.578Z,74.78
2019-02-26T06:32:10.120Z,74.46
2019-02-26T06:34:38.395Z,74.74
2019-02-26T06:37:16.411Z,74.71
2019-02-26T06:39:42.669Z,74.43
2019-02-26T06:42:10.319Z,72.40
2019-02-26T06:44:38.816Z,71.84
2019-02-26T06:47:09.047Z,72.68
2019-02-26T06:49:35.114Z,73.58
2019-02-26T06:52:02.006Z,73.63
2019-02-26T06:54:29.055Z,73.56
2019-02-26T06:56:58.037Z,73.70
2019-02-26T06:59:33.797Z,73.60
2019-02-26T07:01:59.058Z,71.34
2019-02-26T07:04:29.397Z,71.51
2019-02-26T07:06:55.357Z,71.23
2019-02-26T07:09:21.922Z,71.91
2019-02-26T07:11:48.163Z,72.37
2019-02-26T07:14:16.559Z,72.83
2019-02-26T07:16:42.771Z,72.49
2019-02-26T07:19:11.552Z,71.96
2019-02-26T07:21:38.038Z,72.01
2019-02-26T07:24:07.659Z,72.16
2019-02-26T07:26:33.797Z,72.10
2019-02-26T07:29:00.029Z,71.61
2019-02-26T07:31:26.924Z,71.72
2019-02-26T07:33:56.367Z,71.67
2019-02-26T07:36:23.692Z,71.99
2019-02-26T07:38:51.982Z,72.10
2019-02-26T07:41:20.701Z,72.35
2019-02-26T07:43:49.287Z,72.40
2019-02-26T07:46:17.058Z,72.51
2019-02-26T07:48:43.424Z,71.96
2019-02-26T07:51:09.814Z,71.62
2019-02-26T07:53:36.229Z,71.82
2019-02-26T07:56:04.517Z,71.60
2019-02-26T07:58:31.424Z,70.82
2019-02-26T08:00:58.847Z,70.51
2019-02-26T08:03:26.915Z,72.50
2019-02-26T08:05:53.279Z,72.67
2019-02-26T08:08:21.021Z,72.60
2019-02-26T08:10:48.893Z,72.19
2019-02-26T08:13:15.748Z,71.69
2019-02-26T08:15:41.963Z,70.83
2019-02-26T08:18:08.132Z,70.02
2019-02-26T08:20:35.679Z,68.90
2019-02-26T08:23:02.536Z,67.93
2019-02-26T08:25:31.440Z,66.56
2019-02-26T08:27:59.351Z,65.07
2019-02-26T08:30:26.181Z,63.76
2019-02-26T08:32:54.264Z,63.06
2019-02-26T08:35:20.826Z,63.27
2019-02-26T08:37:47.253Z,63.21
2019-02-26T08:40:13.886Z,62.07
2019-02-26T08:42:40.222Z,61.20
2019-02-26T08:45:09.981Z,59.79
2019-02-26T08:47:36.406Z,58.82
2019-02-26T08:50:07.377Z,58.44
2019-02-26T08:52:33.854Z,57.80
2019-02-26T08:55:00.035Z,58.40
2019-02-26T08:57:27.490Z,59.56
2019-02-26T08:59:54.646Z,58.54
2019-02-26T09:02:21.087Z,58.76
2019-02-26T09:04:47.763Z,58.13
2019-02-26T09:07:16.452Z,58.68
2019-02-26T09:09:42.539Z,57.97
2019-02-26T09:12:08.847Z,56.40
2019-02-26T09:14:37.575Z,57.32
2019-02-26T09:17:04.477Z,56.39
2019-02-26T09:19:33.125Z,55.29
2019-02-26T09:22:00.253Z,54.83
2019-02-26T09:24:26.541Z,53.74
2019-02-26T09:26:54.840Z,53.60
2019-02-26T09:29:22.230Z,53.75
2019-02-26T09:31:48.595Z,53.32
2019-02-26T09:34:14.801Z,52.13
2019-02-26T09:36:42.001Z,51.84
2019-02-26T09:39:10.558Z,51.86
2019-02-26T09:41:38.522Z,51.09
2019-02-26T09:44:06.795Z,50.65
2019-02-26T09:46:36.333Z,49.44
2019-02-26T09:49:03.128Z,48.68
2019-02-26T09:51:35.151Z,47.75
2019-02-26T09:54:01.132Z,48.77
2019-02-26T09:56:27.438Z,50.87
2019-02-26T09:58:53.708Z,50.82
2019-02-26T10:01:19.928Z,50.34
2019-02-26T10:03:46.077Z,49.73
2019-02-26T10:06:14.145Z,49.59
2019-02-26T10:08:40.270Z,49.59
2019-02-26T10:11:06.589Z,47.67
2019-02-26T10:13:32.798Z,47.67
2019-02-26T10:16:01.223Z,47.77
2019-02-26T10:18:27.907Z,48.26
2019-02-26T10:20:55.449Z,46.45
2019-02-26T10:23:23.517Z,48.62
2019-02-26T10:25:53.056Z,49.29
2019-02-26T10:28:19.509Z,49.19
2019-02-26T10:30:45.936Z,47.61
2019-02-26T10:33:12.167Z,47.89
2019-02-26T10:35:39.651Z,46.90
2019-02-26T10:38:08.980Z,45.23
2019-02-26T10:40:40.766Z,44.23
2019-02-26T10:43:03.228Z,43.36
2019-02-26T10:45:29.716Z,42.36
2019-02-26T10:47:56.917Z,42.21
2019-02-26T10:50:31.551Z,42.45
2019-02-26T10:53:01.400Z,42.42
2019-02-26T10:55:30.508Z,42.10
2019-02-26T10:57:54.822Z,43.05
2019-02-26T11:00:26.013Z,43.44
2019-02-26T11:02:54.185Z,44.15
2019-02-26T11:05:26.208Z,43.52
2019-02-26T11:07:53.153Z,43.21
2019-02-26T11:10:20.827Z,43.90
2019-02-26T11:12:48.245Z,42.87
2019-02-26T11:15:16.857Z,41.53
2019-02-26T11:17:45.590Z,42.04
2019-02-26T11:20:13.816Z,41.39
2019-02-26T11:22:42.250Z,41.33
2019-02-26T11:25:10.370Z,40.52
2019-02-26T11:27:38.032Z,39.20
2019-02-26T11:30:20.552Z,38.55
2019-02-26T11:32:46.237Z,38.46
2019-02-26T11:35:14.669Z,36.73
2019-02-26T11:37:42.432Z,35.93
2019-02-26T11:40:11.375Z,35.26
2019-02-26T11:42:37.626Z,37.18
2019-02-26T11:45:11.776Z,35.36
2019-02-26T11:47:39.152Z,35.16
2019-02-26T11:50:11.707Z,34.86
2019-02-26T11:52:37.585Z,32.69
2019-02-26T11:55:06.581Z,32.78
2019-02-26T11:57:37.672Z,30.66
2019-02-26T12:00:09.178Z,29.24
2019-02-26T12:02:37.093Z,28.53
2019-02-26T12:05:05.993Z,28.24
2019-02-26T12:07:34.849Z,27.27
2019-02-26T12:10:08.711Z,27.81
2019-02-26T12:12:31.099Z,27.48
2019-02-26T12:14:58.435Z,27.95
2019-02-26T12:17:24.716Z,30.15
2019-02-26T12:22:31.456Z,29.93
2019-02-26T12:24:58.877Z,31.43
2019-02-26T12:27:25.877Z,32.21
2019-02-26T12:29:54.376Z,31.28
2019-02-26T12:32:22.366Z,30.65
2019-02-26T12:34:51.284Z,30.32
2019-02-26T12:37:16.617Z,30.69
2019-02-26T12:39:43.738Z,29.94
2019-02-26T12:42:13.442Z,29.46
2019-02-26T12:44:42.361Z,28.05
2019-02-26T12:47:18.121Z,28.77
2019-02-26T12:49:45.132Z,31.06
2019-02-26T12:52:14.961Z,29.75
2019-02-26T12:54:42.728Z,29.85
2019-02-26T12:57:08.695Z,29.97
2019-02-26T12:59:37.610Z,28.84
2019-02-26T13:02:06.554Z,27.67
2019-02-26T13:04:33.135Z,27.22
2019-02-26T13:06:59.333Z,27.71
2019-02-26T13:09:26.897Z,26.65
2019-02-26T13:12:01.292Z,24.75
2019-02-26T13:14:21.297Z,23.61
2019-02-26T13:16:48.844Z,23.97
2019-02-26T13:19:21.437Z,24.07
2019-02-26T13:21:44.266Z,24.50
2019-02-26T13:26:38.955Z,22.39
2019-02-26T13:29:16.297Z,21.48
2019-02-26T13:31:50.787Z,22.27
2019-02-26T13:36:43.750Z,22.82
2019-02-26T13:39:09.842Z,22.03
2019-02-26T13:44:09.678Z,23.23
2019-02-26T13:46:38.244Z,23.43
2019-02-26T13:49:05.824Z,23.48
2019-02-26T13:51:32.484Z,22.55
2019-02-26T13:53:58.636Z,21.79
2019-02-26T13:56:24.823Z,22.22
2019-02-26T13:58:50.948Z,22.41
2019-02-26T14:01:17.133Z,21.30
2019-02-26T14:03:43.573Z,23.02
2019-02-26T14:06:09.750Z,23.51
2019-02-26T14:08:36.455Z,23.09
2019-02-26T14:11:06.147Z,21.76
2019-02-26T14:13:37.717Z,21.78
2019-02-26T14:16:08.126Z,22.07
2019-02-26T14:18:34.232Z,22.74
2019-02-26T14:23:39.432Z,21.75
2019-02-26T14:26:06.424Z,20.13
2019-02-26T14:28:32.617Z,22.46
2019-02-26T14:30:58.831Z,19.80
2019-02-26T14:33:25.077Z,20.41
2019-02-26T14:35:51.247Z,20.79
2019-02-26T14:38:17.579Z,20.64
2019-02-26T14:40:44.834Z,18.66
2019-02-26T14:43:11.247Z,20.95
2019-02-26T14:45:47.214Z,21.07
2019-02-26T14:48:13.865Z,20.15
2019-02-26T14:50:40.366Z,20.50
2019-02-26T14:53:12.736Z,20.70
2019-02-26T14:55:38.912Z,20.56
2019-02-26T14:58:10.581Z,18.78
2019-02-26T15:00:37.160Z,20.63
2019-02-26T15:03:07.181Z,22.07
2019-02-26T15:05:33.412Z,22.24
2019-02-26T15:07:59.752Z,21.08
2019-02-26T15:10:25.966Z,20.96
2019-02-26T15:12:52.797Z,20.77
2019-02-26T15:15:19.470Z,20.78
2019-02-26T15:17:45.937Z,21.49
2019-02-26T15:20:16.935Z,21.74
2019-02-26T15:22:43.242Z,21.23
2019-02-26T15:25:15.857Z,21.77
2019-02-26T15:27:43.491Z,23.04
2019-02-26T15:30:16.246Z,22.00
2019-02-26T15:32:44.178Z,21.86
2019-02-26T15:35:10.380Z,22.94
2019-02-26T15:37:38.337Z,22.27
2019-02-26T15:40:10.486Z,23.78
2019-02-26T15:42:36.841Z,23.56
2019-02-26T15:45:06.776Z,22.25
2019-02-26T15:47:33.422Z,21.40
2019-02-26T15:49:59.912Z,20.73
2019-02-26T15:52:32.944Z,22.84
2019-02-26T15:54:59.162Z,21.47
2019-02-26T15:57:25.494Z,21.71
2019-02-26T15:59:51.740Z,22.10
2019-02-26T16:02:17.955Z,22.11
2019-02-26T16:04:45.229Z,22.70
2019-02-26T16:07:11.437Z,23.41
2019-02-26T16:09:37.658Z,24.20
2019-02-26T16:12:06.400Z,24.84
2019-02-26T16:14:32.572Z,24.83
2019-02-26T16:16:58.911Z,24.52
2019-02-26T16:19:25.195Z,24.19
2019-02-26T16:21:51.315Z,23.48
2019-02-26T16:24:17.464Z,23.96
2019-02-26T16:26:43.782Z,23.66
2019-02-26T16:29:09.991Z,25.79
2019-02-26T16:31:36.314Z,27.29
2019-02-26T16:34:06.237Z,25.79
2019-02-26T16:36:32.663Z,26.67
2019-02-26T16:38:58.793Z,28.41
2019-02-26T16:41:24.900Z,27.75
2019-02-26T16:43:51.825Z,27.94
2019-02-26T16:46:18.822Z,28.33
2019-02-26T16:48:45.152Z,31.31
2019-02-26T16:51:21.578Z,31.64
2019-02-26T16:53:46.756Z,32.30
2019-02-26T16:56:13.305Z,32.16
2019-02-26T16:58:40.045Z,31.91
2019-02-26T17:01:13.177Z,33.91
2019-02-26T17:03:45.964Z,34.25
2019-02-26T17:06:12.370Z,34.96
2019-02-26T17:08:38.725Z,36.74
2019-02-26T17:11:08.979Z,33.52
2019-02-26T17:13:37.201Z,35.15
2019-02-26T17:16:05.663Z,33.99
2019-02-26T17:18:36.807Z,34.49
2019-02-26T17:21:05.624Z,33.89
2019-02-26T17:23:31.896Z,34.79
2019-02-26T17:26:00.373Z,35.02
2019-02-26T17:28:26.682Z,35.28
2019-02-26T17:30:53.348Z,35.78
2019-02-26T17:33:19.520Z,38.29
2019-02-26T17:35:45.749Z,37.20
2019-02-26T17:38:12.893Z,39.02
2019-02-26T17:40:40.097Z,37.73
2019-02-26T17:43:06.563Z,38.52
2019-02-26T17:45:34.936Z,36.57
2019-02-26T17:48:04.028Z,38.41
2019-02-26T17:50:38.022Z,40.51
2019-02-26T17:53:04.479Z,38.65
2019-02-26T17:55:30.817Z,38.65
2019-02-26T17:57:57.143Z,39.18
2019-02-26T18:00:25.650Z,38.61
2019-02-26T18:02:51.842Z,41.22
2019-02-26T18:05:18.105Z,41.81
2019-02-26T18:07:44.345Z,42.25
2019-02-26T18:10:13.523Z,43.37
2019-02-26T18:12:42.641Z,43.45
2019-02-26T18:15:10.070Z,40.40
2019-02-26T18:17:36.400Z,40.40
2019-02-26T18:20:05.338Z,42.23
2019-02-26T18:22:31.818Z,41.14
2019-02-26T18:24:58.124Z,42.64
2019-02-26T18:27:24.551Z,44.10
2019-02-26T18:29:50.797Z,44.10
2019-02-26T18:32:17.158Z,43.10
2019-02-26T18:34:43.617Z,42.89
2019-02-26T18:37:10.093Z,45.51
2019-02-26T18:39:36.484Z,43.98
2019-02-26T18:42:02.890Z,43.73
2019-02-26T18:44:29.377Z,45.00
2019-02-26T18:46:55.626Z,46.65
2019-02-26T18:49:23.089Z,45.97
2019-02-26T18:51:49.869Z,45.43
2019-02-26T18:54:17.716Z,44.48
2019-02-26T18:56:44.552Z,42.81
2019-02-26T18:59:10.673Z,41.36
2019-02-26T19:01:37.077Z,41.27
2019-02-26T19:04:03.414Z,43.43
2019-02-26T19:06:29.727Z,45.65
2019-02-26T19:08:56.037Z,47.05
2019-02-26T19:11:25.359Z,44.74
2019-02-26T19:13:51.427Z,45.48
2019-02-26T19:16:20.417Z,43.35
2019-02-26T19:18:46.087Z,43.64
2019-02-26T19:21:12.373Z,44.19
2019-02-26T19:23:38.919Z,44.79
2019-02-26T19:26:06.406Z,46.54
2019-02-26T19:28:32.561Z,47.48
2019-02-26T19:30:58.978Z,46.32
2019-02-26T19:33:25.260Z,45.49
2019-02-26T19:35:51.702Z,45.87
2019-02-26T19:38:17.949Z,47.74
2019-02-26T19:41:03.357Z,47.15
2019-02-26T19:43:29.811Z,48.00
2019-02-26T19:45:57.121Z,47.34
2019-02-26T19:48:23.576Z,47.84
2019-02-26T19:50:49.822Z,48.99
2019-02-26T19:53:16.324Z,49.86
2019-02-26T19:55:48.814Z,50.23
2019-02-26T19:58:12.726Z,50.74
2019-02-26T20:00:38.951Z,51.35
2019-02-26T20:03:06.242Z,50.79
2019-02-26T20:05:32.498Z,52.06
2019-02-26T20:07:58.621Z,52.82
2019-02-26T20:10:24.831Z,52.89
2019-02-26T20:12:51.023Z,51.61
2019-02-26T20:15:17.210Z,51.49
2019-02-26T20:17:43.693Z,51.94
2019-02-26T20:20:16.748Z,52.34
2019-02-26T20:22:43.214Z,52.28
2019-02-26T20:25:13.914Z,52.21
2019-02-26T20:27:40.163Z,51.98
2019-02-26T20:30:16.733Z,52.25
2019-02-26T20:32:43.034Z,52.16
2019-02-26T20:35:11.934Z,51.84
2019-02-26T20:37:40.145Z,52.11
2019-02-26T20:40:18.416Z,52.22
2019-02-26T20:42:45.205Z,54.00
2019-02-26T20:45:17.816Z,54.63
2019-02-26T20:47:46.506Z,52.65
2019-02-26T20:50:12.791Z,53.43
2019-02-26T20:52:39.229Z,53.38
2019-02-26T20:55:23.719Z,53.29
2019-02-26T21:00:25.254Z,55.24
2019-02-26T21:02:58.376Z,55.79
2019-02-26T21:05:25.158Z,55.72
2019-02-26T21:07:51.455Z,54.47
2019-02-26T21:10:18.565Z,55.87
2019-02-26T21:12:45.124Z,53.40
2019-02-26T21:15:24.030Z,55.00
2019-02-26T21:17:58.079Z,54.29
2019-02-26T21:20:24.989Z,54.78
2019-02-26T21:22:54.510Z,55.48
2019-02-26T21:25:19.106Z,55.94
2019-02-26T21:27:45.932Z,56.04
2019-02-26T21:30:14.448Z,55.56
2019-02-26T21:32:45.420Z,55.62
2019-02-26T21:35:13.106Z,55.54
2019-02-26T21:37:40.353Z,55.46
2019-02-26T21:40:17.932Z,57.43
2019-02-26T21:42:50.724Z,55.79
2019-02-26T21:45:17.455Z,56.61
2019-02-26T21:47:43.776Z,56.14
2019-02-26T21:50:13.328Z,56.52
2019-02-26T21:52:42.139Z,56.09
2019-02-26T21:55:13.393Z,55.08
2019-02-26T21:57:39.566Z,54.31
2019-02-26T22:00:20.281Z,54.25
2019-02-26T22:02:52.071Z,54.44
2019-02-26T22:05:16.945Z,55.35
2019-02-26T22:07:44.478Z,55.84
2019-02-26T22:10:15.163Z,54.60
2019-02-26T22:12:42.382Z,54.88
2019-02-26T22:15:11.093Z,54.60
2019-02-26T22:17:37.449Z,56.17
2019-02-26T22:20:23.694Z,55.98
2019-02-26T22:22:45.280Z,55.63
2019-02-26T22:25:15.825Z,55.21
2019-02-26T22:27:40.916Z,55.04
2019-02-26T22:30:10.821Z,54.51
2019-02-26T22:32:38.751Z,54.93
2019-02-26T22:35:07.187Z,55.64
2019-02-26T22:37:33.379Z,57.19
2019-02-26T22:39:59.688Z,57.85
2019-02-26T22:42:26.535Z,60.14
2019-02-26T22:44:54.839Z,60.58
2019-02-26T22:47:21.007Z,60.65
2019-02-26T22:49:47.350Z,61.31
2019-02-26T22:52:13.443Z,61.65
2019-02-26T22:54:40.718Z,59.37
2019-02-26T22:57:07.618Z,59.21
2019-02-26T22:59:33.845Z,59.59
2019-02-26T23:02:00.241Z,59.75
2019-02-26T23:04:32.566Z,59.18
2019-02-26T23:06:58.954Z,60.49
2019-02-26T23:09:26.863Z,61.20
2019-02-26T23:11:53.229Z,59.77
2019-02-26T23:14:19.938Z,59.39
2019-02-26T23:16:46.375Z,59.57
2019-02-26T23:19:12.974Z,59.61
2019-02-26T23:21:40.841Z,59.78
2019-02-26T23:24:07.232Z,59.67
2019-02-26T23:26:34.132Z,59.51
2019-02-26T23:29:04.413Z,59.67
2019-02-26T23:31:32.876Z,59.02
2019-02-26T23:33:59.527Z,59.89
2019-02-26T23:36:28.579Z,60.39
2019-02-26T23:38:54.031Z,62.18
2019-02-26T23:41:20.426Z,63.08
2019-02-26T23:43:46.726Z,63.71
2019-02-26T23:46:14.041Z,63.54
2019-02-26T23:48:40.993Z,64.02
2019-02-26T23:51:08.841Z,64.28
2019-02-26T23:53:34.975Z,64.13
2019-02-26T23:56:04.970Z,63.95
2019-02-26T23:58:31.674Z,62.88
